createdAt,value
2018-09-26T00:01:14.468Z,52.39
2018-09-26T00:03:48.678Z,51.22
2018-09-26T00:06:19.044Z,50.85
2018-09-26T00:08:47.994Z,51.83
2018-09-26T00:11:17.547Z,52.22
2018-09-26T00:13:46.654Z,51.89
2018-09-26T00:16:15.667Z,51.72
2018-09-26T00:18:44.636Z,50.95
2018-09-26T00:21:13.632Z,52.38
2018-09-26T00:23:42.593Z,51.89
2018-09-26T00:26:11.571Z,51.97
2018-09-26T00:28:40.566Z,52.66
2018-09-26T00:31:09.866Z,51.74
2018-09-26T00:33:38.896Z,52.50
2018-09-26T00:36:08.036Z,53.08
2018-09-26T00:38:37.465Z,53.64
2018-09-26T00:41:06.516Z,53.29
2018-09-26T00:43:36.097Z,53.88
2018-09-26T00:46:05.073Z,53.00
2018-09-26T00:48:34.145Z,53.69
2018-09-26T00:51:03.699Z,53.99
2018-09-26T00:53:32.668Z,53.81
2018-09-26T00:56:01.911Z,54.27
2018-09-26T00:58:30.860Z,54.99
2018-09-26T01:00:59.887Z,55.94
2018-09-26T01:03:28.948Z,54.80
2018-09-26T01:05:57.943Z,55.70
2018-09-26T01:08:26.967Z,55.68
2018-09-26T01:10:56.030Z,54.56
2018-09-26T01:13:25.192Z,54.28
2018-09-26T01:15:54.155Z,54.88
2018-09-26T01:18:23.116Z,55.05
2018-09-26T01:20:52.342Z,56.47
2018-09-26T01:23:21.313Z,56.59
2018-09-26T01:25:50.256Z,56.17
2018-09-26T01:28:19.983Z,56.64
2018-09-26T01:30:49.068Z,56.84
2018-09-26T01:33:18.439Z,56.89
2018-09-26T01:35:47.484Z,56.56
2018-09-26T01:38:17.223Z,56.86
2018-09-26T01:40:46.572Z,56.61
2018-09-26T01:43:16.075Z,56.97
2018-09-26T01:45:45.068Z,55.86
2018-09-26T01:48:14.103Z,55.23
2018-09-26T01:50:43.165Z,55.61
2018-09-26T01:53:12.115Z,55.39
2018-09-26T01:55:41.092Z,53.82
2018-09-26T01:58:10.182Z,54.98
2018-09-26T02:00:39.119Z,56.23
2018-09-26T02:03:08.423Z,55.78
2018-09-26T02:05:37.499Z,56.77
2018-09-26T02:08:06.534Z,55.19
2018-09-26T02:10:35.487Z,54.27
2018-09-26T02:13:04.896Z,54.85
2018-09-26T02:15:33.986Z,54.62
2018-09-26T02:18:03.061Z,53.83
2018-09-26T02:20:32.106Z,55.18
2018-09-26T02:23:01.533Z,55.48
2018-09-26T02:25:30.832Z,53.04
2018-09-26T02:28:00.168Z,53.81
2018-09-26T02:30:29.109Z,53.22
2018-09-26T02:32:58.078Z,53.03
2018-09-26T02:35:27.136Z,53.03
2018-09-26T02:37:56.035Z,53.65
2018-09-26T02:40:25.538Z,53.77
2018-09-26T02:42:54.569Z,54.32
2018-09-26T02:45:23.767Z,54.93
2018-09-26T02:47:52.683Z,55.88
2018-09-26T02:50:21.803Z,55.22
2018-09-26T02:52:50.846Z,54.29
2018-09-26T02:55:20.600Z,54.08
2018-09-26T02:57:49.812Z,54.55
2018-09-26T03:00:20.852Z,54.90
2018-09-26T03:02:49.799Z,54.10
2018-09-26T03:05:20.607Z,54.15
2018-09-26T03:07:49.539Z,53.86
2018-09-26T03:10:20.093Z,54.41
2018-09-26T03:12:49.029Z,54.33
2018-09-26T03:15:19.382Z,54.26
2018-09-26T03:17:48.410Z,54.28
2018-09-26T03:20:20.591Z,55.34
2018-09-26T03:22:49.641Z,55.09
2018-09-26T03:25:20.115Z,54.58
2018-09-26T03:27:49.369Z,55.15
2018-09-26T03:30:21.330Z,54.43
2018-09-26T03:32:50.321Z,53.34
2018-09-26T03:35:20.521Z,53.58
2018-09-26T03:37:49.506Z,52.81
2018-09-26T03:40:20.843Z,53.96
2018-09-26T03:42:49.869Z,54.04
2018-09-26T03:45:21.001Z,54.47
2018-09-26T03:47:49.997Z,54.16
2018-09-26T03:50:22.091Z,54.08
2018-09-26T03:52:52.216Z,53.59
2018-09-26T03:55:21.147Z,53.93
2018-09-26T03:57:50.150Z,54.46
2018-09-26T04:00:21.459Z,54.95
2018-09-26T04:02:50.813Z,55.28
2018-09-26T04:05:22.000Z,56.01
2018-09-26T04:07:50.993Z,55.67
2018-09-26T04:10:23.069Z,54.47
2018-09-26T04:12:52.100Z,54.59
2018-09-26T04:15:23.364Z,55.53
2018-09-26T04:17:52.743Z,56.63
2018-09-26T04:20:22.647Z,55.84
2018-09-26T04:22:51.643Z,55.68
2018-09-26T04:25:21.592Z,55.66
2018-09-26T04:27:50.576Z,55.89
2018-09-26T04:30:22.152Z,56.23
2018-09-26T04:32:51.161Z,54.78
2018-09-26T04:35:21.130Z,55.26
2018-09-26T04:37:50.293Z,55.50
2018-09-26T04:40:21.615Z,55.17
2018-09-26T04:42:50.864Z,55.72
2018-09-26T04:45:21.177Z,55.67
2018-09-26T04:47:50.284Z,55.71
2018-09-26T04:50:21.247Z,55.96
2018-09-26T04:52:50.284Z,54.98
2018-09-26T04:55:20.837Z,55.58
2018-09-26T04:57:49.979Z,55.60
2018-09-26T05:00:21.227Z,55.47
2018-09-26T05:02:50.288Z,55.63
2018-09-26T05:05:21.320Z,56.58
2018-09-26T05:07:50.470Z,56.70
2018-09-26T05:10:22.650Z,56.62
2018-09-26T05:12:52.256Z,56.93
2018-09-26T05:15:22.161Z,56.72
2018-09-26T05:17:51.549Z,55.77
2018-09-26T05:20:24.707Z,55.54
2018-09-26T05:22:54.087Z,54.70
2018-09-26T05:25:23.447Z,54.57
2018-09-26T05:27:52.926Z,53.67
2018-09-26T05:30:23.579Z,53.45
2018-09-26T05:32:52.620Z,52.99
2018-09-26T05:35:23.727Z,52.80
2018-09-26T05:37:53.205Z,51.84
2018-09-26T05:40:23.908Z,50.64
2018-09-26T05:42:53.143Z,50.25
2018-09-26T05:45:22.584Z,50.73
2018-09-26T05:47:51.609Z,49.00
2018-09-26T05:50:25.846Z,48.26
2018-09-26T05:52:55.025Z,48.74
2018-09-26T05:55:26.986Z,47.91
2018-09-26T05:57:57.139Z,47.32
2018-09-26T06:00:26.817Z,47.37
2018-09-26T06:02:56.890Z,48.45
2018-09-26T06:05:28.735Z,47.16
2018-09-26T06:07:59.563Z,46.35
2018-09-26T06:10:29.005Z,46.63
2018-09-26T06:12:58.763Z,45.82
2018-09-26T06:15:28.117Z,45.65
2018-09-26T06:17:57.592Z,45.54
2018-09-26T06:20:28.456Z,44.90
2018-09-26T06:22:59.977Z,45.14
2018-09-26T06:25:29.529Z,43.33
2018-09-26T06:27:58.671Z,43.90
2018-09-26T06:30:27.951Z,42.26
2018-09-26T06:32:57.509Z,44.05
2018-09-26T06:35:28.518Z,43.43
2018-09-26T06:37:58.689Z,43.17
2018-09-26T06:40:27.914Z,41.43
2018-09-26T06:42:57.098Z,42.49
2018-09-26T06:45:26.689Z,41.96
2018-09-26T06:47:55.761Z,41.89
2018-09-26T06:50:26.080Z,42.84
2018-09-26T06:52:55.486Z,42.01
2018-09-26T06:55:25.136Z,43.23
2018-09-26T06:57:54.282Z,45.09
2018-09-26T07:00:23.894Z,43.91
2018-09-26T07:02:52.935Z,43.01
2018-09-26T07:05:22.986Z,41.79
2018-09-26T07:07:52.161Z,43.58
2018-09-26T07:10:24.131Z,45.45
2018-09-26T07:12:53.205Z,45.68
2018-09-26T07:15:22.591Z,44.41
2018-09-26T07:17:52.278Z,44.19
2018-09-26T07:20:24.920Z,45.42
2018-09-26T07:22:54.297Z,46.63
2018-09-26T07:25:23.899Z,45.66
2018-09-26T07:27:53.128Z,46.61
2018-09-26T07:30:25.488Z,46.02
2018-09-26T07:32:54.676Z,47.97
2018-09-26T07:35:24.326Z,46.98
2018-09-26T07:37:53.566Z,47.74
2018-09-26T07:40:25.875Z,48.00
2018-09-26T07:42:55.093Z,46.51
2018-09-26T07:45:24.491Z,46.15
2018-09-26T07:47:53.644Z,44.81
2018-09-26T07:50:24.344Z,45.47
2018-09-26T07:52:53.475Z,43.97
2018-09-26T07:55:23.133Z,42.67
2018-09-26T07:57:52.400Z,43.86
2018-09-26T08:00:22.753Z,43.95
2018-09-26T08:02:51.931Z,44.19
2018-09-26T08:05:23.056Z,45.90
2018-09-26T08:07:52.267Z,45.64
2018-09-26T08:10:24.347Z,45.15
2018-09-26T08:12:53.466Z,45.52
2018-09-26T08:15:23.213Z,44.88
2018-09-26T08:17:52.413Z,46.99
2018-09-26T08:20:24.352Z,45.81
2018-09-26T08:22:53.649Z,47.69
2018-09-26T08:25:23.152Z,44.50
2018-09-26T08:27:52.278Z,45.50
2018-09-26T08:30:23.638Z,45.71
2018-09-26T08:32:52.829Z,43.76
2018-09-26T08:35:23.717Z,44.18
2018-09-26T08:37:53.050Z,44.94
2018-09-26T08:40:24.718Z,44.51
2018-09-26T08:42:53.863Z,43.81
2018-09-26T08:45:24.170Z,42.80
2018-09-26T08:47:53.418Z,43.17
2018-09-26T08:50:23.740Z,42.93
2018-09-26T08:52:52.924Z,42.62
2018-09-26T08:55:22.234Z,42.93
2018-09-26T08:57:51.421Z,44.32
2018-09-26T09:00:29.776Z,43.80
2018-09-26T09:02:59.008Z,41.66
2018-09-26T09:05:28.612Z,42.17
2018-09-26T09:07:57.871Z,42.31
2018-09-26T09:10:27.184Z,41.80
2018-09-26T09:12:56.329Z,40.86
2018-09-26T09:15:27.016Z,40.57
2018-09-26T09:17:56.271Z,41.79
2018-09-26T09:20:26.046Z,41.09
2018-09-26T09:22:55.597Z,41.62
2018-09-26T09:25:25.485Z,41.54
2018-09-26T09:27:54.773Z,41.64
2018-09-26T09:30:25.233Z,42.08
2018-09-26T09:32:54.767Z,43.05
2018-09-26T09:35:25.200Z,42.07
2018-09-26T09:37:54.462Z,42.38
2018-09-26T09:40:24.414Z,42.83
2018-09-26T09:42:53.814Z,42.76
2018-09-26T09:45:23.753Z,44.13
2018-09-26T09:47:52.874Z,42.03
2018-09-26T09:50:22.346Z,42.34
2018-09-26T09:52:52.040Z,40.32
2018-09-26T09:55:23.212Z,42.47
2018-09-26T09:57:52.372Z,41.87
2018-09-26T10:00:30.186Z,40.06
2018-09-26T10:02:59.427Z,41.59
2018-09-26T10:05:28.664Z,40.60
2018-09-26T10:07:59.064Z,40.21
2018-09-26T10:10:28.413Z,39.74
2018-09-26T10:12:57.571Z,39.06
2018-09-26T10:15:26.843Z,38.33
2018-09-26T10:17:56.169Z,39.43
2018-09-26T10:20:25.771Z,38.29
2018-09-26T10:22:54.809Z,36.14
2018-09-26T10:25:24.302Z,36.80
2018-09-26T10:27:53.373Z,37.54
2018-09-26T10:30:25.137Z,37.21
2018-09-26T10:32:54.188Z,36.51
2018-09-26T10:35:23.852Z,36.05
2018-09-26T10:37:53.008Z,35.76
2018-09-26T10:40:24.814Z,36.46
2018-09-26T10:42:53.903Z,35.85
2018-09-26T10:45:23.355Z,36.76
2018-09-26T10:47:52.346Z,37.45
2018-09-26T10:50:21.551Z,36.74
2018-09-26T10:52:50.631Z,36.67
2018-09-26T10:55:25.978Z,35.66
2018-09-26T10:57:55.092Z,36.70
2018-09-26T11:00:29.025Z,36.14
2018-09-26T11:02:58.017Z,34.41
2018-09-26T11:05:27.107Z,35.78
2018-09-26T11:07:56.220Z,35.78
2018-09-26T11:10:25.800Z,35.89
2018-09-26T11:12:54.780Z,35.62
2018-09-26T11:15:24.055Z,35.13
2018-09-26T11:17:53.116Z,33.92
2018-09-26T11:20:25.571Z,35.58
2018-09-26T11:22:54.580Z,35.50
2018-09-26T11:25:25.487Z,36.90
2018-09-26T11:27:54.551Z,34.54
2018-09-26T11:30:25.918Z,34.71
2018-09-26T11:32:55.008Z,35.63
2018-09-26T11:35:24.103Z,34.27
2018-09-26T11:37:53.252Z,35.44
2018-09-26T11:40:25.148Z,35.73
2018-09-26T11:42:54.274Z,34.76
2018-09-26T11:45:23.784Z,34.25
2018-09-26T11:47:55.540Z,33.62
2018-09-26T11:50:30.747Z,32.95
2018-09-26T11:53:04.710Z,33.09
2018-09-26T11:55:33.776Z,35.62
2018-09-26T11:58:02.977Z,37.00
2018-09-26T12:00:32.053Z,36.96
2018-09-26T12:03:01.111Z,34.38
2018-09-26T12:05:30.415Z,33.27
2018-09-26T12:07:59.511Z,35.06
2018-09-26T12:16:15.271Z,35.09
2018-09-26T12:18:46.809Z,35.33
2018-09-26T12:21:16.438Z,36.21
2018-09-26T12:23:46.590Z,34.85
2018-09-26T12:26:17.293Z,34.81
2018-09-26T12:28:49.244Z,35.53
2018-09-26T12:31:18.840Z,34.75
2018-09-26T12:33:51.653Z,35.08
2018-09-26T12:36:22.879Z,35.27
2018-09-26T12:38:52.213Z,33.59
2018-09-26T12:41:23.159Z,33.88
2018-09-26T12:43:52.497Z,34.47
2018-09-26T12:46:21.919Z,35.41
2018-09-26T12:48:50.956Z,35.10
2018-09-26T12:51:20.076Z,33.89
2018-09-26T12:53:49.391Z,32.88
2018-09-26T12:56:18.335Z,33.31
2018-09-26T12:58:47.505Z,33.00
2018-09-26T13:01:16.646Z,34.05
2018-09-26T13:03:45.683Z,33.87
2018-09-26T13:06:14.928Z,32.35
2018-09-26T13:08:44.174Z,32.25
2018-09-26T13:11:13.406Z,33.20
2018-09-26T13:13:42.677Z,32.80
2018-09-26T13:16:12.083Z,33.59
2018-09-26T13:18:41.553Z,33.01
2018-09-26T13:21:10.728Z,34.17
2018-09-26T13:23:39.811Z,33.02
2018-09-26T13:26:08.914Z,33.64
2018-09-26T13:28:38.245Z,32.59
2018-09-26T13:31:07.397Z,32.31
2018-09-26T13:33:36.586Z,32.63
2018-09-26T13:36:05.748Z,32.20
2018-09-26T13:38:34.865Z,32.74
2018-09-26T13:41:03.909Z,34.32
2018-09-26T13:43:33.013Z,34.28
2018-09-26T13:46:02.107Z,33.86
2018-09-26T13:48:31.155Z,33.56
2018-09-26T13:51:00.345Z,32.51
2018-09-26T13:53:29.524Z,33.39
2018-09-26T13:55:58.531Z,33.19
2018-09-26T13:58:27.674Z,33.26
2018-09-26T14:00:56.784Z,33.76
2018-09-26T14:03:26.196Z,33.96
2018-09-26T14:05:55.537Z,33.17
2018-09-26T14:08:25.051Z,34.10
2018-09-26T14:10:54.220Z,35.25
2018-09-26T14:13:23.888Z,35.75
2018-09-26T14:15:52.911Z,36.35
2018-09-26T14:18:22.061Z,36.00
2018-09-26T14:20:51.177Z,36.23
2018-09-26T14:23:20.341Z,35.06
2018-09-26T14:25:49.525Z,35.09
2018-09-26T14:28:18.965Z,35.57
2018-09-26T14:30:48.436Z,36.53
2018-09-26T14:33:17.550Z,36.46
2018-09-26T14:35:46.821Z,36.20
2018-09-26T14:38:16.102Z,36.45
2018-09-26T14:40:45.241Z,36.65
2018-09-26T14:43:14.278Z,36.21
2018-09-26T14:45:43.407Z,36.34
2018-09-26T14:48:12.398Z,36.47
2018-09-26T14:50:41.533Z,36.17
2018-09-26T14:53:10.657Z,36.46
2018-09-26T14:55:39.909Z,36.26
2018-09-26T14:58:09.128Z,35.86
2018-09-26T15:00:38.175Z,35.82
2018-09-26T15:03:07.711Z,35.87
2018-09-26T15:05:36.783Z,36.17
2018-09-26T15:08:05.974Z,36.22
2018-09-26T15:10:35.033Z,36.27
2018-09-26T15:13:04.244Z,36.44
2018-09-26T15:15:33.285Z,36.44
2018-09-26T15:18:02.320Z,37.09
2018-09-26T15:20:32.417Z,36.40
2018-09-26T15:23:01.475Z,35.99
2018-09-26T15:25:30.547Z,36.49
2018-09-26T15:27:59.871Z,37.00
2018-09-26T15:30:28.867Z,36.83
2018-09-26T15:32:58.020Z,36.87
2018-09-26T15:35:27.086Z,37.63
2018-09-26T15:37:56.209Z,38.30
2018-09-26T15:40:25.620Z,37.22
2018-09-26T15:42:54.808Z,37.12
2018-09-26T15:45:24.021Z,36.98
2018-09-26T15:47:53.105Z,36.92
2018-09-26T15:50:23.608Z,39.11
2018-09-26T15:52:52.618Z,38.14
2018-09-26T15:55:21.628Z,38.35
2018-09-26T15:57:50.719Z,39.72
2018-09-26T16:00:21.061Z,40.03
2018-09-26T16:02:50.364Z,40.21
2018-09-26T16:05:19.653Z,40.64
2018-09-26T16:07:48.791Z,40.01
2018-09-26T16:10:17.904Z,41.73
2018-09-26T16:12:46.959Z,40.14
2018-09-26T16:15:18.065Z,39.59
2018-09-26T16:17:47.392Z,39.92
2018-09-26T16:20:16.460Z,39.94
2018-09-26T16:22:45.592Z,39.35
2018-09-26T16:25:15.566Z,39.95
2018-09-26T16:27:44.617Z,40.40
2018-09-26T16:30:13.742Z,39.95
2018-09-26T16:32:42.915Z,41.40
2018-09-26T16:35:12.804Z,45.69
2018-09-26T16:37:41.905Z,47.38
2018-09-26T16:40:11.106Z,48.04
2018-09-26T16:42:40.196Z,48.32
2018-09-26T16:45:10.084Z,48.80
2018-09-26T16:47:39.184Z,48.21
2018-09-26T16:50:08.308Z,48.28
2018-09-26T16:52:37.530Z,49.04
2018-09-26T16:55:06.683Z,48.95
2018-09-26T16:57:35.692Z,48.91
2018-09-26T17:00:04.900Z,50.01
2018-09-26T17:02:34.017Z,49.25
2018-09-26T17:05:03.128Z,50.93
2018-09-26T17:07:32.269Z,50.09
2018-09-26T17:10:01.471Z,50.45
2018-09-26T17:12:30.526Z,49.89
2018-09-26T17:14:59.541Z,50.09
2018-09-26T17:17:33.092Z,51.84
2018-09-26T17:22:54.719Z,51.33
2018-09-26T17:25:24.910Z,52.00
2018-09-26T17:27:54.101Z,52.08
2018-09-26T17:30:24.147Z,52.10
2018-09-26T17:32:53.516Z,52.57
2018-09-26T17:35:22.951Z,53.54
2018-09-26T17:37:53.158Z,54.04
2018-09-26T17:40:25.441Z,54.08
2018-09-26T17:42:54.867Z,54.16
2018-09-26T17:45:24.268Z,54.69
2018-09-26T17:50:46.125Z,55.29
2018-09-26T17:53:15.329Z,56.17
2018-09-26T17:55:44.581Z,56.19
2018-09-26T17:58:13.754Z,56.44
2018-09-26T18:00:50.493Z,57.17
2018-09-26T18:03:24.674Z,56.60
2018-09-26T18:05:57.495Z,58.08
2018-09-26T18:08:33.066Z,59.15
2018-09-26T18:11:07.949Z,60.11
2018-09-26T18:13:43.020Z,59.78
2018-09-26T18:16:18.162Z,59.99
2018-09-26T18:18:53.231Z,61.39
2018-09-26T18:21:30.551Z,61.95
2018-09-26T18:24:04.317Z,62.14
2018-09-26T18:26:40.863Z,61.87
2018-09-26T18:29:15.644Z,62.14
2018-09-26T18:31:52.217Z,62.41
2018-09-26T18:34:27.308Z,63.00
2018-09-26T18:37:04.920Z,63.49
2018-09-26T18:39:41.778Z,63.27
2018-09-26T18:42:19.011Z,64.12
2018-09-26T18:44:54.447Z,63.95
2018-09-26T18:47:30.822Z,64.34
2018-09-26T18:50:03.099Z,64.11
2018-09-26T18:52:32.902Z,63.75
2018-09-26T18:55:03.407Z,64.17
2018-09-26T18:57:33.007Z,63.93
2018-09-26T19:00:03.949Z,64.22
2018-09-26T19:02:36.255Z,64.58
2018-09-26T19:05:07.305Z,64.68
2018-09-26T19:07:38.109Z,65.95
2018-09-26T19:10:10.482Z,65.84
2018-09-26T19:12:46.933Z,65.80
2018-09-26T19:15:20.261Z,65.79
2018-09-26T19:17:50.166Z,66.59
2018-09-26T19:20:26.220Z,66.71
2018-09-26T19:22:56.333Z,66.64
2018-09-26T19:25:25.647Z,66.31
2018-09-26T19:27:54.568Z,66.49
2018-09-26T19:30:24.731Z,67.54
2018-09-26T19:32:53.852Z,67.25
2018-09-26T19:35:23.580Z,67.91
2018-09-26T19:37:52.897Z,68.32
2018-09-26T19:40:34.722Z,68.04
2018-09-26T19:43:14.863Z,67.82
2018-09-26T19:45:44.938Z,67.83
2018-09-26T19:48:14.984Z,66.48
2018-09-26T19:50:44.689Z,66.99
2018-09-26T19:53:15.652Z,66.99
2018-09-26T19:55:51.794Z,66.50
2018-09-26T19:58:24.123Z,66.17
2018-09-26T20:00:53.623Z,66.59
2018-09-26T20:03:24.494Z,66.58
2018-09-26T20:05:54.129Z,65.83
2018-09-26T20:08:24.643Z,66.14
2018-09-26T20:10:54.748Z,66.72
2018-09-26T20:13:25.212Z,65.97
2018-09-26T20:15:54.821Z,65.25
2018-09-26T20:18:26.276Z,65.14
2018-09-26T20:20:55.227Z,65.33
2018-09-26T20:23:25.161Z,65.07
2018-09-26T20:25:55.232Z,63.92
2018-09-26T20:28:25.165Z,63.06
2018-09-26T20:30:54.100Z,62.93
2018-09-26T20:33:23.603Z,63.15
2018-09-26T20:35:52.566Z,63.02
2018-09-26T20:38:21.973Z,63.07
2018-09-26T20:40:51.543Z,63.54
2018-09-26T20:43:27.057Z,64.09
2018-09-26T20:45:56.333Z,64.15
2018-09-26T20:48:25.676Z,64.35
2018-09-26T20:50:54.696Z,64.36
2018-09-26T20:53:24.538Z,63.85
2018-09-26T20:55:53.579Z,63.63
2018-09-26T20:58:23.832Z,64.16
2018-09-26T21:00:52.985Z,63.01
2018-09-26T21:03:22.363Z,62.85
2018-09-26T21:05:51.379Z,63.63
2018-09-26T21:08:21.323Z,63.19
2018-09-26T21:10:50.650Z,63.43
2018-09-26T21:13:20.895Z,63.22
2018-09-26T21:15:50.314Z,63.79
2018-09-26T21:18:19.660Z,63.92
2018-09-26T21:20:50.306Z,64.30
2018-09-26T21:23:20.118Z,64.61
2018-09-26T21:25:49.241Z,64.73
2018-09-26T21:28:18.381Z,65.12
2018-09-26T21:30:47.787Z,65.58
2018-09-26T21:33:17.025Z,65.92
2018-09-26T21:35:46.866Z,66.72
2018-09-26T21:38:16.201Z,66.77
2018-09-26T21:40:45.628Z,67.19
2018-09-26T21:43:14.810Z,67.10
2018-09-26T21:45:44.099Z,66.53
2018-09-26T21:48:15.265Z,67.56
2018-09-26T21:50:44.833Z,67.66
2018-09-26T21:53:14.153Z,67.92
2018-09-26T21:55:43.429Z,67.96
2018-09-26T21:58:12.629Z,67.13
2018-09-26T22:00:46.942Z,67.48
2018-09-26T22:03:16.771Z,67.64
2018-09-26T22:05:47.147Z,67.87
2018-09-26T22:08:17.413Z,67.42
2018-09-26T22:10:46.936Z,67.49
2018-09-26T22:13:17.250Z,67.81
2018-09-26T22:15:47.650Z,68.17
2018-09-26T22:18:17.143Z,68.15
2018-09-26T22:20:47.114Z,67.31
2018-09-26T22:23:16.431Z,67.84
2018-09-26T22:25:45.708Z,67.63
2018-09-26T22:28:14.906Z,68.11
2018-09-26T22:30:44.423Z,67.14
2018-09-26T22:33:13.652Z,66.80
2018-09-26T22:35:43.530Z,67.92
2018-09-26T22:38:13.716Z,67.34
2018-09-26T22:40:42.961Z,67.07
2018-09-26T22:43:12.608Z,66.85
2018-09-26T22:45:41.974Z,66.49
2018-09-26T22:48:11.458Z,66.90
2018-09-26T22:50:40.768Z,67.76
2018-09-26T22:53:10.144Z,67.38
2018-09-26T22:55:39.344Z,67.19
2018-09-26T22:58:08.710Z,66.77
2018-09-26T23:00:38.153Z,66.57
2018-09-26T23:03:07.754Z,66.72
2018-09-26T23:05:37.349Z,66.19
2018-09-26T23:08:07.147Z,65.34
2018-09-26T23:10:37.537Z,64.36
2018-09-26T23:30:33.602Z,62.84
2018-09-26T23:33:03.509Z,63.48
2018-09-26T23:35:44.949Z,62.91
2018-09-26T23:38:16.398Z,62.60
2018-09-26T23:44:20.071Z,62.22
2018-09-26T23:46:49.419Z,62.84
2018-09-26T23:49:18.600Z,63.86
2018-09-26T23:51:47.877Z,63.87
2018-09-26T23:54:17.647Z,63.42
2018-09-26T23:56:47.519Z,63.03
2018-09-26T23:59:16.876Z,62.37
